Acme, North Carolina
Current Conditions -  °F | °C
As of 7:53 AM on Tuesday 21 Oct 2014 (Local Time) from KILM Reporting Station
Clear Clear  
Wind Chill: 55°   Ceiling: Unl
Heat Index: 55°   Visibility: 10mi
Dew Point: 54°   Wind: 0mph
Humidity: 96%   Direction: NA
Pressure: 29.95"   Gusts: NA
Location:  34.3494°N, 78.2681°W
Report Text: KILM 211153Z 00000KT 10SM CLR 13/12 A2995 RMK AO2 SLP140 7//// T01280122 10133 20117 53005
Loading
Personal Weather Stations






























Interactive Weather Map
Tropical Storm Tracking
New forecast layout! Learn more

10-Day Weather Forecast

Advertisements
Track Severe Weather on mobile